Time;durP1;ratioP1;P1;durP2;ratioP2;P2;SDS_P1;SDS_P2;PMS_P1;PMS_P2;Temp;Humidity;BMP_temperature;BMP_pressure;BME280_temperature;BME280_humidity;BME280_pressure;Samples;Min_cycle;Max_cycle;Signal;HPM_P1;HPM_P2
2023/09/24 00:00:20;;;;;;;10.47;9.47;;;12.60;99.90;;;;;;5083955;28;20509;-57
2023/09/24 00:02:50;;;;;;;10.87;9.77;;;12.60;99.90;;;;;;5079665;28;20520;-57
2023/09/24 00:05:19;;;;;;;11.37;10.37;;;12.60;99.90;;;;;;5083363;28;20560;-56
2023/09/24 00:07:48;;;;;;;11.07;10.07;;;12.60;99.90;;;;;;5081438;28;20575;-57
2023/09/24 00:10:16;;;;;;;10.70;9.70;;;12.50;99.90;;;;;;5085711;28;20476;-58
2023/09/24 00:12:44;;;;;;;9.60;8.70;;;12.50;99.90;;;;;;5083338;28;20602;-57
2023/09/24 00:15:14;;;;;;;10.33;9.43;;;12.50;99.90;;;;;;5080192;28;20581;-57
2023/09/24 00:17:42;;;;;;;10.13;9.13;;;12.50;99.90;;;;;;5072096;28;20534;-57
2023/09/24 00:20:13;;;;;;;10.07;9.07;;;12.50;99.90;;;;;;5080569;28;20464;-57
2023/09/24 00:22:41;;;;;;;8.60;7.87;;;12.50;99.90;;;;;;5082436;28;20584;-57
2023/09/24 00:25:10;;;;;;;9.87;8.97;;;12.50;99.90;;;;;;5082262;28;20480;-56
2023/09/24 00:27:38;;;;;;;10.53;9.63;;;12.50;99.90;;;;;;5072566;28;21555;-57
2023/09/24 00:30:08;;;;;;;11.13;9.40;;;12.50;99.90;;;;;;5073044;28;20912;-57
2023/09/24 00:32:36;;;;;;;13.43;9.57;;;12.50;99.90;;;;;;5079979;28;20480;-57
2023/09/24 00:35:05;;;;;;;9.63;8.63;;;12.50;99.90;;;;;;5081709;28;20548;-57
2023/09/24 00:37:35;;;;;;;10.03;9.03;;;12.40;99.90;;;;;;5076484;28;20571;-57
2023/09/24 00:40:06;;;;;;;11.80;10.50;;;12.40;99.90;;;;;;5077742;28;20849;-59
2023/09/24 00:42:34;;;;;;;9.63;8.83;;;12.40;99.90;;;;;;5076041;28;20556;-57
2023/09/24 00:45:03;;;;;;;10.43;9.43;;;12.40;99.90;;;;;;5071281;28;20556;-57
2023/09/24 00:47:31;;;;;;;9.23;8.37;;;12.40;99.90;;;;;;5075722;28;20920;-57
2023/09/24 00:50:00;;;;;;;10.77;9.67;;;12.40;99.90;;;;;;5069328;28;20480;-56
2023/09/24 00:52:28;;;;;;;10.13;9.13;;;12.30;99.90;;;;;;5069456;28;20572;-56
2023/09/24 00:54:58;;;;;;;9.77;8.87;;;12.30;99.90;;;;;;5076809;28;20560;-56
2023/09/24 00:57:26;;;;;;;10.33;9.20;;;12.30;99.90;;;;;;5074348;28;20496;-56
2023/09/24 00:59:58;;;;;;;9.67;8.77;;;12.30;99.90;;;;;;5073189;28;20500;-59
2023/09/24 01:02:31;;;;;;;9.80;8.90;;;12.30;99.90;;;;;;5070847;28;21007;-57
2023/09/24 01:05:01;;;;;;;10.37;9.23;;;12.30;99.90;;;;;;5070590;28;20469;-56
2023/09/24 01:07:31;;;;;;;8.60;7.80;;;12.30;99.90;;;;;;5073916;28;20502;-56
2023/09/24 01:10:01;;;;;;;9.60;8.70;;;12.20;99.90;;;;;;5083415;28;20947;-57
2023/09/24 01:12:29;;;;;;;9.37;8.47;;;12.30;99.90;;;;;;5084464;28;21005;-57
2023/09/24 01:14:58;;;;;;;8.90;8.00;;;12.20;99.90;;;;;;5068261;28;20851;-57
2023/09/24 01:17:27;;;;;;;10.23;9.17;;;12.20;99.90;;;;;;5072851;28;20913;-55
2023/09/24 01:19:56;;;;;;;9.50;8.60;;;12.20;99.90;;;;;;5070491;28;20483;-57
2023/09/24 01:22:25;;;;;;;9.70;8.67;;;12.20;99.90;;;;;;5070845;28;20581;-56
2023/09/24 01:24:55;;;;;;;9.50;8.60;;;12.20;99.90;;;;;;5070691;28;22789;-57
2023/09/24 01:27:24;;;;;;;9.33;8.47;;;12.20;99.90;;;;;;5076575;28;20572;-57
2023/09/24 01:29:54;;;;;;;7.50;6.90;;;12.20;99.90;;;;;;5073354;28;20486;-56
2023/09/24 01:32:22;;;;;;;8.83;8.03;;;12.20;99.90;;;;;;5071013;28;21343;-56
2023/09/24 01:34:51;;;;;;;9.03;8.23;;;12.20;99.90;;;;;;5073059;28;20541;-57
2023/09/24 01:37:21;;;;;;;8.87;8.07;;;12.10;99.90;;;;;;5079318;28;20563;-56
2023/09/24 01:39:51;;;;;;;10.17;8.50;;;12.10;99.90;;;;;;5081154;28;21014;-57
2023/09/24 01:42:20;;;;;;;9.47;8.60;;;12.10;99.90;;;;;;5082918;28;21045;-57
2023/09/24 01:44:48;;;;;;;9.20;8.20;;;12.10;99.90;;;;;;5070728;28;20500;-57
2023/09/24 01:47:16;;;;;;;8.80;8.00;;;12.00;99.90;;;;;;5074006;28;21048;-57
2023/09/24 01:49:44;;;;;;;8.30;7.50;;;12.00;99.90;;;;;;5070313;28;20601;-59
2023/09/24 01:52:12;;;;;;;9.50;8.60;;;12.00;99.90;;;;;;5072385;28;20623;-57
2023/09/24 01:54:40;;;;;;;9.20;8.40;;;12.00;99.90;;;;;;5071873;28;22217;-59
2023/09/24 01:57:09;;;;;;;8.67;7.77;;;12.00;99.90;;;;;;5074032;28;20503;-57
2023/09/24 01:59:37;;;;;;;8.87;8.07;;;12.00;99.90;;;;;;5070913;28;20462;-58
2023/09/24 02:02:06;;;;;;;8.70;7.97;;;12.00;99.90;;;;;;5072625;28;20499;-58
2023/09/24 02:04:37;;;;;;;9.30;8.40;;;11.90;99.90;;;;;;5072274;28;20469;-57
2023/09/24 02:07:05;;;;;;;8.80;7.93;;;11.90;99.90;;;;;;5071669;28;21427;-57
2023/09/24 02:09:35;;;;;;;9.10;8.27;;;11.90;99.90;;;;;;5078456;28;20572;-58
2023/09/24 02:12:03;;;;;;;10.00;9.00;;;11.90;99.90;;;;;;5080611;28;20504;-59
2023/09/24 02:14:33;;;;;;;8.13;7.43;;;11.90;99.90;;;;;;5075890;28;20533;-59
2023/09/24 02:17:02;;;;;;;8.93;8.03;;;11.80;99.90;;;;;;5072781;28;20484;-57
2023/09/24 02:19:31;;;;;;;9.70;8.80;;;11.80;99.90;;;;;;5075190;28;20501;-58
2023/09/24 02:21:59;;;;;;;8.80;7.90;;;11.80;99.90;;;;;;5066754;28;20481;-59
2023/09/24 02:24:26;;;;;;;10.23;8.33;;;11.80;99.90;;;;;;5070327;28;20468;-58
2023/09/24 02:26:54;;;;;;;8.83;8.10;;;11.80;99.90;;;;;;5068591;28;20503;-58
2023/09/24 02:29:23;;;;;;;8.30;7.50;;;11.80;99.90;;;;;;5082089;28;20508;-59
2023/09/24 02:31:53;;;;;;;8.87;8.07;;;11.70;99.90;;;;;;5083242;28;20530;-58
2023/09/24 02:34:21;;;;;;;8.10;7.27;;;11.70;99.90;;;;;;5074663;28;20496;-58
2023/09/24 02:36:52;;;;;;;8.43;7.63;;;11.70;99.90;;;;;;5065051;28;22619;-58
2023/09/24 02:39:22;;;;;;;9.00;8.20;;;11.70;99.90;;;;;;5075405;28;20566;-58
2023/09/24 02:41:50;;;;;;;8.60;7.73;;;11.60;99.90;;;;;;5079401;28;21087;-59
2023/09/24 02:44:19;;;;;;;8.50;7.70;;;11.60;99.90;;;;;;5078009;28;20473;-58
2023/09/24 02:46:47;;;;;;;9.27;8.37;;;11.60;99.90;;;;;;5066450;28;20516;-57
2023/09/24 02:49:16;;;;;;;9.40;8.50;;;11.60;99.90;;;;;;5070539;28;21059;-59
2023/09/24 02:51:46;;;;;;;8.37;7.47;;;11.60;99.90;;;;;;5066865;28;20988;-59
2023/09/24 02:54:14;;;;;;;8.57;7.73;;;11.60;99.90;;;;;;5069776;28;20461;-57
2023/09/24 02:56:42;;;;;;;9.00;7.90;;;11.60;99.90;;;;;;5068300;28;20587;-58
2023/09/24 02:59:12;;;;;;;8.77;7.83;;;11.60;99.90;;;;;;5078275;28;20580;-58
2023/09/24 03:01:46;;;;;;;9.30;8.37;;;11.60;99.90;;;;;;5071005;28;20574;-58
2023/09/24 03:04:16;;;;;;;10.30;8.70;;;11.50;99.90;;;;;;5071324;28;20915;-59
2023/09/24 03:06:45;;;;;;;7.93;7.13;;;11.50;99.90;;;;;;5068241;28;21372;-58
2023/09/24 03:09:13;;;;;;;9.23;8.17;;;11.50;99.90;;;;;;5074675;28;20868;-58
2023/09/24 03:11:41;;;;;;;9.27;8.30;;;11.50;99.90;;;;;;5081031;28;20656;-58
2023/09/24 03:14:10;;;;;;;8.13;7.43;;;11.50;99.90;;;;;;5083193;28;20468;-58
2023/09/24 03:16:38;;;;;;;9.60;8.70;;;11.50;99.90;;;;;;5069969;28;20583;-57
2023/09/24 03:19:06;;;;;;;9.80;7.50;;;11.50;99.90;;;;;;5069232;28;20466;-58
2023/09/24 03:21:35;;;;;;;9.03;8.03;;;11.50;99.90;;;;;;5070183;28;20627;-57
2023/09/24 03:24:04;;;;;;;8.40;7.60;;;11.50;99.90;;;;;;5072279;28;20556;-58
2023/09/24 03:26:32;;;;;;;8.30;7.40;;;11.50;99.90;;;;;;5076809;28;20685;-58
2023/09/24 03:29:02;;;;;;;8.37;7.50;;;11.50;99.90;;;;;;5076840;28;20591;-58
2023/09/24 03:31:32;;;;;;;8.40;7.50;;;11.40;99.90;;;;;;5079650;28;20485;-58
2023/09/24 03:34:00;;;;;;;7.97;7.20;;;11.50;99.90;;;;;;5074327;28;20476;-58
2023/09/24 03:36:30;;;;;;;8.40;7.57;;;11.50;99.90;;;;;;5072894;28;20562;-58
2023/09/24 03:38:59;;;;;;;8.77;7.73;;;11.40;99.90;;;;;;5075418;28;21434;-58
2023/09/24 03:41:28;;;;;;;7.70;7.00;;;11.40;99.90;;;;;;5084269;28;20507;-59
2023/09/24 03:43:56;;;;;;;8.20;7.40;;;11.40;99.90;;;;;;5086093;28;20501;-58
2023/09/24 03:46:24;;;;;;;8.77;7.87;;;11.40;99.90;;;;;;5080205;28;20485;-58
2023/09/24 03:48:52;;;;;;;8.13;7.40;;;11.40;99.90;;;;;;5075573;28;20567;-58
2023/09/24 03:51:20;;;;;;;9.00;8.10;;;11.40;99.90;;;;;;5074477;28;20993;-58
2023/09/24 03:53:48;;;;;;;8.40;7.60;;;11.40;99.90;;;;;;5074592;28;21418;-59
2023/09/24 03:56:18;;;;;;;8.67;7.50;;;11.40;99.90;;;;;;5082363;28;21011;-58
2023/09/24 03:58:46;;;;;;;9.57;7.73;;;11.40;99.90;;;;;;5082336;28;20473;-59
2023/09/24 04:01:14;;;;;;;8.37;7.67;;;11.30;99.90;;;;;;5074577;28;20525;-57
2023/09/24 04:03:42;;;;;;;8.33;7.43;;;11.40;99.90;;;;;;5075109;28;20593;-59
2023/09/24 04:06:11;;;;;;;8.87;7.97;;;11.30;99.90;;;;;;5074507;28;20539;-57
2023/09/24 04:08:40;;;;;;;8.87;7.77;;;11.30;99.90;;;;;;5074934;28;20475;-58
2023/09/24 04:11:08;;;;;;;8.40;7.60;;;11.30;99.90;;;;;;5082730;28;20487;-58
2023/09/24 04:13:38;;;;;;;8.20;7.40;;;11.30;99.90;;;;;;5083988;28;20555;-57
2023/09/24 04:16:09;;;;;;;9.13;8.23;;;11.30;99.90;;;;;;5079330;28;20547;-58
2023/09/24 04:18:37;;;;;;;8.33;7.53;;;11.30;99.90;;;;;;5076118;28;20469;-58
2023/09/24 04:21:14;;;;;;;9.27;7.90;;;11.30;99.90;;;;;;5077724;28;21037;-58
2023/09/24 04:23:43;;;;;;;8.13;7.43;;;11.20;99.90;;;;;;5074854;28;20472;-57
2023/09/24 04:26:20;;;;;;;8.57;7.37;;;11.20;99.90;;;;;;5079044;28;21109;-58
2023/09/24 04:28:50;;;;;;;8.53;7.73;;;11.20;99.90;;;;;;5073605;28;20607;-58
2023/09/24 04:31:18;;;;;;;7.83;7.13;;;11.20;99.90;;;;;;5073982;28;20477;-58
2023/09/24 04:33:48;;;;;;;8.40;7.70;;;11.20;99.90;;;;;;5074833;28;20578;-58
2023/09/24 04:36:18;;;;;;;8.60;7.80;;;11.20;99.90;;;;;;5076919;28;20477;-57
2023/09/24 04:38:46;;;;;;;7.93;7.13;;;11.20;99.90;;;;;;5075855;28;20460;-57
2023/09/24 04:41:16;;;;;;;7.87;7.07;;;11.20;99.90;;;;;;5080478;28;20488;-58
2023/09/24 04:43:45;;;;;;;7.67;6.97;;;11.20;99.90;;;;;;5082303;28;20594;-59
2023/09/24 04:46:15;;;;;;;8.37;7.00;;;11.20;99.90;;;;;;5074783;28;20869;-58
2023/09/24 04:48:43;;;;;;;8.00;7.20;;;11.20;99.90;;;;;;5081174;28;20476;-57
2023/09/24 04:51:12;;;;;;;8.20;7.40;;;11.20;99.90;;;;;;5070696;28;20562;-59
2023/09/24 04:53:40;;;;;;;7.20;6.50;;;11.10;99.90;;;;;;5073721;28;20560;-59
2023/09/24 04:56:08;;;;;;;7.83;7.03;;;11.10;99.90;;;;;;5068756;28;20549;-57
2023/09/24 04:58:36;;;;;;;7.97;7.00;;;11.10;99.90;;;;;;5075919;28;20810;-59
2023/09/24 05:01:05;;;;;;;9.10;7.23;;;11.10;99.90;;;;;;5070709;28;20465;-59
2023/09/24 05:03:36;;;;;;;9.30;7.10;;;11.00;99.90;;;;;;5074828;28;20481;-58
2023/09/24 05:06:06;;;;;;;8.30;7.50;;;11.00;99.90;;;;;;5072090;28;20502;-58
2023/09/24 05:08:34;;;;;;;7.53;6.83;;;11.00;99.90;;;;;;5073291;28;20520;-59
2023/09/24 05:11:03;;;;;;;7.33;6.63;;;11.00;99.90;;;;;;5077131;28;20499;-59
2023/09/24 05:13:31;;;;;;;7.30;6.60;;;11.00;99.90;;;;;;5084818;28;20468;-59
2023/09/24 05:16:01;;;;;;;7.40;6.70;;;11.00;99.90;;;;;;5078587;28;20651;-58
2023/09/24 05:18:29;;;;;;;8.37;7.57;;;10.90;99.90;;;;;;5075156;28;20468;-59
2023/09/24 05:20:59;;;;;;;8.00;7.30;;;10.90;99.90;;;;;;5070478;28;20880;-58
2023/09/24 05:23:27;;;;;;;7.80;7.10;;;10.90;99.90;;;;;;5073530;28;20491;-57
2023/09/24 05:25:55;;;;;;;7.20;6.50;;;10.90;99.90;;;;;;5073331;28;20559;-57
2023/09/24 05:28:23;;;;;;;7.90;6.70;;;10.90;99.90;;;;;;5071395;28;20524;-59
2023/09/24 05:30:57;;;;;;;8.50;7.70;;;10.90;99.90;;;;;;5073262;28;20814;-57
2023/09/24 05:33:25;;;;;;;8.00;7.07;;;10.90;99.90;;;;;;5070637;28;20469;-58
2023/09/24 05:35:53;;;;;;;7.17;6.10;;;11.00;99.90;;;;;;5075819;28;20497;-58
2023/09/24 05:38:23;;;;;;;7.23;6.53;;;11.00;99.90;;;;;;5072064;28;21024;-58
2023/09/24 05:40:51;;;;;;;8.07;7.23;;;11.00;99.90;;;;;;5078590;28;20468;-59
2023/09/24 05:43:19;;;;;;;7.40;6.30;;;11.00;99.90;;;;;;5082925;28;20572;-58
2023/09/24 05:45:48;;;;;;;7.43;6.60;;;10.90;99.90;;;;;;5080773;28;20534;-58
2023/09/24 05:48:17;;;;;;;7.97;6.80;;;10.90;99.90;;;;;;5070273;28;20476;-58
2023/09/24 05:50:46;;;;;;;8.13;7.30;;;11.00;99.90;;;;;;5076509;28;20503;-56
2023/09/24 05:53:15;;;;;;;7.73;6.93;;;11.00;99.90;;;;;;5073227;28;20485;-57
2023/09/24 05:55:53;;;;;;;7.07;6.37;;;11.00;99.90;;;;;;5069524;28;20946;-58
2023/09/24 05:58:23;;;;;;;7.53;6.77;;;11.00;99.90;;;;;;5072963;28;20622;-58
2023/09/24 06:00:52;;;;;;;8.17;6.40;;;11.10;99.90;;;;;;5071643;28;20941;-56
2023/09/24 06:03:20;;;;;;;7.43;6.73;;;11.10;99.90;;;;;;5069272;28;20466;-57
2023/09/24 06:05:48;;;;;;;7.20;6.50;;;11.10;99.90;;;;;;5079140;28;20562;-57
2023/09/24 06:08:16;;;;;;;8.77;6.90;;;11.20;99.90;;;;;;5079214;28;20497;-57
2023/09/24 06:10:45;;;;;;;7.10;6.50;;;11.20;99.90;;;;;;5077871;28;20531;-57
2023/09/24 06:13:15;;;;;;;6.93;6.23;;;11.20;99.90;;;;;;5080639;28;20551;-59
2023/09/24 06:15:44;;;;;;;7.10;6.50;;;11.20;99.90;;;;;;5082966;28;20588;-58
2023/09/24 06:18:13;;;;;;;7.60;6.87;;;11.20;99.90;;;;;;5082273;28;20507;-58
2023/09/24 06:20:42;;;;;;;7.13;6.43;;;11.30;99.90;;;;;;5078420;28;20470;-59
2023/09/24 06:23:11;;;;;;;6.97;6.37;;;11.30;99.90;;;;;;5072273;28;20492;-59
2023/09/24 06:25:39;;;;;;;6.97;6.20;;;11.40;99.90;;;;;;5068719;28;21817;-59
2023/09/24 06:28:09;;;;;;;7.37;5.90;;;11.40;99.90;;;;;;5068851;28;20492;-59
2023/09/24 06:30:39;;;;;;;9.40;6.80;;;11.40;99.90;;;;;;5070843;28;20512;-57
2023/09/24 06:33:07;;;;;;;6.70;6.10;;;11.50;99.90;;;;;;5070101;28;20551;-57
2023/09/24 06:35:37;;;;;;;7.03;6.43;;;11.50;99.90;;;;;;5068815;28;20479;-57
2023/09/24 06:38:06;;;;;;;7.40;6.70;;;11.60;99.90;;;;;;5070225;28;20927;-57
2023/09/24 06:40:38;;;;;;;6.20;5.60;;;11.60;99.90;;;;;;5067967;28;20479;-57
2023/09/24 06:43:06;;;;;;;6.80;6.17;;;11.70;99.90;;;;;;5074510;28;20587;-57
2023/09/24 06:45:36;;;;;;;6.30;5.73;;;11.80;99.90;;;;;;5076162;28;20538;-57
2023/09/24 06:48:06;;;;;;;6.40;5.53;;;11.80;99.90;;;;;;5066028;28;20464;-57
2023/09/24 06:50:37;;;;;;;6.23;5.57;;;11.80;99.90;;;;;;5067577;28;20848;-57
2023/09/24 06:53:05;;;;;;;6.60;5.60;;;11.90;99.90;;;;;;5071373;28;20481;-56
2023/09/24 06:55:33;;;;;;;5.90;5.30;;;11.90;99.90;;;;;;5069121;28;20469;-57
2023/09/24 06:58:01;;;;;;;6.50;5.90;;;11.90;99.90;;;;;;5070517;28;20581;-57
2023/09/24 07:00:29;;;;;;;6.10;5.37;;;12.00;99.90;;;;;;5067957;28;20557;-57
2023/09/24 07:02:57;;;;;;;6.10;5.50;;;12.00;99.90;;;;;;5058960;28;21259;-57
2023/09/24 07:05:27;;;;;;;6.93;5.70;;;12.00;99.90;;;;;;5048240;28;20475;-56
2023/09/24 07:07:55;;;;;;;6.50;5.90;;;12.10;99.90;;;;;;5044757;28;20515;-57
2023/09/24 07:10:23;;;;;;;10.53;5.90;;;12.20;99.90;;;;;;5060873;28;20474;-57
2023/09/24 07:12:52;;;;;;;5.97;5.37;;;12.30;99.90;;;;;;5056204;28;21110;-57
2023/09/24 07:15:21;;;;;;;8.87;5.53;;;12.30;99.90;;;;;;5066951;28;20551;-56
2023/09/24 07:17:49;;;;;;;7.83;6.00;;;12.40;99.90;;;;;;5051260;28;20577;-57
2023/09/24 07:20:18;;;;;;;8.77;6.00;;;12.40;99.90;;;;;;5053374;28;20464;-57
2023/09/24 07:22:47;;;;;;;9.03;5.20;;;12.50;99.90;;;;;;5051950;28;21307;-56
2023/09/24 07:25:15;;;;;;;6.90;5.50;;;12.70;99.90;;;;;;5053838;28;20488;-57
2023/09/24 07:27:43;;;;;;;10.33;5.40;;;12.70;99.90;;;;;;5052988;28;20488;-56
2023/09/24 07:30:12;;;;;;;5.30;4.70;;;12.80;99.90;;;;;;5061154;28;20493;-57
2023/09/24 07:32:40;;;;;;;6.57;4.70;;;12.80;99.90;;;;;;5059571;28;20493;-56
2023/09/24 07:35:10;;;;;;;5.57;5.00;;;12.90;99.90;;;;;;5066659;28;20468;-57
2023/09/24 07:37:39;;;;;;;8.30;4.70;;;13.00;99.90;;;;;;5067558;28;20510;-57
2023/09/24 07:40:10;;;;;;;5.70;4.93;;;13.00;99.90;;;;;;5063767;28;21037;-57
2023/09/24 07:42:38;;;;;;;6.80;6.10;;;13.10;99.90;;;;;;5069044;28;20563;-57
2023/09/24 07:45:12;;;;;;;6.63;6.03;;;13.10;99.90;;;;;;5074914;28;20560;-58
2023/09/24 07:47:41;;;;;;;6.43;5.80;;;13.20;99.90;;;;;;5073770;28;21024;-57
2023/09/24 07:50:10;;;;;;;6.30;5.60;;;13.20;99.90;;;;;;5073697;28;20461;-58
2023/09/24 07:52:38;;;;;;;7.50;5.87;;;13.20;99.90;;;;;;5067673;28;20488;-58
2023/09/24 07:55:08;;;;;;;6.57;5.97;;;13.30;99.90;;;;;;5074291;28;20465;-57
2023/09/24 07:57:36;;;;;;;8.60;7.20;;;13.30;99.90;;;;;;5076727;28;20500;-58
2023/09/24 08:00:06;;;;;;;8.10;7.40;;;13.30;99.90;;;;;;5071702;28;20547;-57
2023/09/24 08:02:34;;;;;;;8.87;7.97;;;13.40;99.90;;;;;;5071269;28;20982;-59
2023/09/24 08:05:02;;;;;;;9.70;8.70;;;13.50;99.90;;;;;;5069520;28;20803;-59
2023/09/24 08:07:32;;;;;;;10.47;9.37;;;13.50;99.90;;;;;;5059790;28;21184;-59
2023/09/24 08:10:00;;;;;;;10.73;9.73;;;13.60;99.90;;;;;;5056162;28;20596;-59
2023/09/24 08:12:30;;;;;;;11.50;10.10;;;13.60;99.90;;;;;;5061725;28;20556;-57
2023/09/24 08:14:58;;;;;;;9.67;8.67;;;13.60;99.90;;;;;;5049830;28;20476;-62
2023/09/24 08:17:26;;;;;;;9.93;8.60;;;13.70;99.90;;;;;;5060316;28;20495;-61
2023/09/24 08:19:54;;;;;;;9.73;8.77;;;13.70;99.90;;;;;;5065303;28;20525;-59
2023/09/24 08:22:23;;;;;;;8.33;7.63;;;13.80;99.90;;;;;;5069481;28;20476;-58
2023/09/24 08:24:51;;;;;;;8.90;8.00;;;13.80;99.90;;;;;;5063225;28;20551;-58
2023/09/24 08:27:19;;;;;;;8.90;8.00;;;13.80;99.90;;;;;;5056616;28;23805;-58
2023/09/24 08:29:48;;;;;;;8.80;7.87;;;13.80;99.90;;;;;;5060759;28;20617;-58
2023/09/24 08:32:16;;;;;;;8.27;7.47;;;13.90;99.90;;;;;;5060475;28;20489;-58
2023/09/24 08:34:45;;;;;;;8.00;7.17;;;13.90;99.90;;;;;;5056710;28;20544;-60
2023/09/24 08:37:13;;;;;;;8.77;7.97;;;14.00;99.90;;;;;;5061154;28;20496;-58
2023/09/24 08:39:41;;;;;;;6.93;6.23;;;14.00;99.90;;;;;;5059196;28;20635;-59
2023/09/24 08:42:10;;;;;;;8.03;6.17;;;14.10;99.90;;;;;;5065856;28;20481;-58
2023/09/24 08:44:41;;;;;;;7.57;6.33;;;14.10;99.90;;;;;;5069793;28;20465;-58
2023/09/24 08:47:11;;;;;;;7.00;6.27;;;14.20;99.90;;;;;;5066886;28;20496;-57
2023/09/24 08:49:40;;;;;;;7.27;6.57;;;14.20;99.90;;;;;;5058770;28;21044;-59
2023/09/24 08:52:10;;;;;;;7.00;6.30;;;14.30;99.90;;;;;;5056982;28;20493;-57
2023/09/24 08:54:38;;;;;;;6.47;5.87;;;14.40;99.90;;;;;;5068186;28;20988;-57
2023/09/24 08:57:06;;;;;;;6.47;5.83;;;14.50;99.90;;;;;;5053963;28;20491;-57
2023/09/24 08:59:35;;;;;;;6.23;5.63;;;14.60;99.90;;;;;;5055459;28;20981;-58
2023/09/24 09:02:03;;;;;;;5.70;5.20;;;14.70;99.90;;;;;;5056345;28;20516;-58
2023/09/24 09:04:33;;;;;;;7.37;6.60;;;14.80;99.90;;;;;;5060626;28;20553;-58
2023/09/24 09:07:12;;;;;;;6.27;5.60;;;14.80;99.90;;;;;;5052712;28;21548;-58
2023/09/24 09:09:41;;;;;;;7.10;6.47;;;14.90;99.90;;;;;;5049447;28;20559;-56
2023/09/24 09:12:18;;;;;;;6.77;6.00;;;14.90;99.90;;;;;;5051042;28;20485;-59
2023/09/24 09:14:46;;;;;;;6.70;6.00;;;15.00;99.90;;;;;;5069107;28;20543;-58
2023/09/24 09:17:14;;;;;;;6.23;5.73;;;15.00;99.90;;;;;;5073063;28;20557;-59
2023/09/24 09:19:53;;;;;;;5.67;4.90;;;15.00;99.90;;;;;;5073638;28;20570;-58
2023/09/24 09:22:23;;;;;;;5.30;4.80;;;15.10;99.90;;;;;;5074010;28;20473;-59
2023/09/24 09:25:03;;;;;;;5.50;4.80;;;15.20;99.90;;;;;;5075349;28;20534;-59
2023/09/24 09:27:33;;;;;;;5.13;4.10;;;15.20;99.90;;;;;;5073108;28;20485;-58
2023/09/24 09:30:13;;;;;;;4.23;3.80;;;15.30;99.90;;;;;;5078608;28;20480;-57
2023/09/24 09:32:41;;;;;;;6.00;3.47;;;15.30;99.90;;;;;;5072748;28;20591;-58
2023/09/24 09:35:10;;;;;;;5.80;3.70;;;15.20;99.90;;;;;;5077825;28;20567;-58
2023/09/24 09:37:39;;;;;;;4.70;3.53;;;15.30;99.90;;;;;;5075353;28;20619;-59
2023/09/24 09:40:07;;;;;;;4.27;3.87;;;15.40;99.90;;;;;;5080888;28;20563;-58
2023/09/24 09:42:38;;;;;;;4.70;4.17;;;15.40;99.90;;;;;;5069588;28;20499;-58
2023/09/24 09:45:07;;;;;;;6.90;3.90;;;15.50;99.90;;;;;;5067833;28;20882;-58
2023/09/24 09:47:47;;;;;;;5.83;3.30;;;15.50;99.90;;;;;;5070543;28;20675;-58
2023/09/24 09:50:21;;;;;;;3.77;3.13;;;15.60;99.90;;;;;;5068562;28;20468;-62
2023/09/24 09:52:54;;;;;;;3.47;3.07;;;15.70;99.90;;;;;;5070032;28;20592;-62
2023/09/24 09:55:23;;;;;;;3.63;3.10;;;15.90;99.90;;;;;;5072501;28;20936;-61
2023/09/24 09:57:52;;;;;;;3.13;2.83;;;16.00;99.90;;;;;;5072978;28;20839;-60
2023/09/24 10:00:21;;;;;;;4.70;3.70;;;16.00;99.90;;;;;;5069902;28;20479;-58
2023/09/24 10:02:51;;;;;;;5.40;3.30;;;16.00;99.90;;;;;;5072200;28;21169;-61
2023/09/24 10:05:21;;;;;;;3.80;3.27;;;16.00;99.90;;;;;;5070703;28;20469;-61
2023/09/24 10:07:49;;;;;;;4.37;2.90;;;16.00;99.90;;;;;;5071544;28;22037;-60
2023/09/24 10:10:40;;;;;;;3.53;3.20;;;16.00;99.90;;;;;;5070853;28;20566;-57
2023/09/24 10:13:47;;;;;;;5.27;3.50;;;16.00;99.90;;;;;;5065229;28;20489;-58
2023/09/24 10:16:41;;;;;;;3.70;3.27;;;16.00;99.90;;;;;;5071273;28;20505;-61
2023/09/24 10:19:11;;;;;;;3.27;3.07;;;16.00;99.90;;;;;;5070641;28;20468;-61
2023/09/24 10:21:43;;;;;;;3.30;3.00;;;16.00;99.90;;;;;;5066213;28;20575;-61
2023/09/24 10:24:41;;;;;;;4.63;3.10;;;16.00;99.90;;;;;;5070204;28;20555;-62
2023/09/24 10:27:09;;;;;;;6.13;3.33;;;16.10;99.90;;;;;;5074885;28;21087;-61
2023/09/24 10:30:05;;;;;;;3.93;3.20;;;16.20;99.90;;;;;;5078580;28;20573;-62
2023/09/24 10:32:52;;;;;;;3.83;3.00;;;16.20;99.90;;;;;;5075904;28;20548;-60
2023/09/24 10:35:20;;;;;;;4.20;3.80;;;16.40;99.90;;;;;;5077814;28;20560;-57
2023/09/24 10:38:03;;;;;;;4.20;3.63;;;16.50;99.90;;;;;;5076793;28;20480;-61
2023/09/24 10:40:32;;;;;;;4.13;3.70;;;16.70;99.90;;;;;;5063829;28;21243;-62
2023/09/24 10:43:20;;;;;;;4.20;3.90;;;16.80;99.90;;;;;;5073307;28;20520;-63
2023/09/24 10:45:49;;;;;;;5.53;3.50;;;16.80;99.90;;;;;;5066973;28;20521;-62
2023/09/24 10:48:19;;;;;;;4.60;4.20;;;16.80;99.90;;;;;;5076449;28;20619;-63
2023/09/24 10:50:53;;;;;;;4.60;3.87;;;16.70;99.90;;;;;;5074345;28;20564;-60
2023/09/24 10:53:23;;;;;;;4.00;3.60;;;16.70;99.90;;;;;;5076262;28;20505;-58
2023/09/24 10:55:51;;;;;;;5.80;3.37;;;16.70;99.90;;;;;;5075045;28;20496;-61
2023/09/24 10:58:32;;;;;;;3.93;3.33;;;16.60;99.90;;;;;;5077584;28;20835;-62
2023/09/24 11:01:00;;;;;;;5.47;3.97;;;16.70;99.90;;;;;;5070339;28;20477;-60
2023/09/24 11:03:35;;;;;;;8.77;5.10;;;16.70;99.90;;;;;;5067463;28;20487;-62
2023/09/24 11:06:04;;;;;;;4.00;3.70;;;16.70;99.90;;;;;;5066556;28;20496;-58
2023/09/24 11:08:33;;;;;;;4.20;3.73;;;16.70;99.90;;;;;;5047741;28;21083;-56
2023/09/24 11:11:01;;;;;;;3.73;3.30;;;16.90;99.90;;;;;;5074887;28;20465;-58
2023/09/24 11:13:30;;;;;;;5.83;3.40;;;17.10;99.90;;;;;;5061122;28;20575;-59
2023/09/24 11:15:58;;;;;;;4.47;3.00;;;17.20;99.90;;;;;;5057643;28;20496;-60
2023/09/24 11:18:28;;;;;;;3.17;2.87;;;17.20;99.90;;;;;;5065065;28;20464;-59
2023/09/24 11:20:57;;;;;;;3.47;3.27;;;17.20;99.90;;;;;;5067511;28;20511;-60
2023/09/24 11:23:25;;;;;;;4.10;3.70;;;17.10;99.90;;;;;;5066712;28;20468;-60
2023/09/24 11:25:54;;;;;;;6.60;3.70;;;17.00;99.90;;;;;;5055888;28;20564;-59
2023/09/24 11:28:30;;;;;;;7.63;5.10;;;17.10;99.90;;;;;;5060838;28;20475;-59
2023/09/24 11:30:59;;;;;;;5.07;4.20;;;17.20;99.90;;;;;;5069856;28;20565;-60
2023/09/24 11:33:27;;;;;;;5.30;4.80;;;17.10;99.90;;;;;;5078071;28;20579;-60
2023/09/24 11:35:55;;;;;;;4.60;3.93;;;17.00;99.90;;;;;;5076230;28;20956;-60
2023/09/24 11:38:28;;;;;;;6.13;3.90;;;17.00;99.90;;;;;;5068228;28;20976;-59
2023/09/24 11:41:07;;;;;;;2.83;2.53;;;17.00;99.90;;;;;;5070274;28;20989;-59
2023/09/24 11:43:36;;;;;;;3.00;2.80;;;17.10;99.90;;;;;;5067181;28;20609;-59
2023/09/24 11:46:16;;;;;;;2.83;2.60;;;17.20;99.90;;;;;;5068131;28;20508;-59
2023/09/24 11:48:45;;;;;;;3.73;3.37;;;17.20;99.90;;;;;;5071786;28;20472;-59
2023/09/24 11:51:14;;;;;;;4.33;2.93;;;17.20;99.90;;;;;;5069202;28;20550;-63
2023/09/24 11:53:43;;;;;;;3.03;2.73;;;17.10;99.90;;;;;;5072088;28;20488;-59
2023/09/24 11:56:12;;;;;;;3.23;2.80;;;17.00;99.90;;;;;;5069954;28;20492;-60
2023/09/24 11:58:40;;;;;;;4.73;2.97;;;16.90;99.90;;;;;;5061611;28;20594;-59
2023/09/24 12:01:09;;;;;;;2.30;2.20;;;16.90;99.90;;;;;;5060617;28;20535;-59
2023/09/24 12:03:38;;;;;;;3.43;2.50;;;16.90;99.90;;;;;;5074491;28;20470;-61
2023/09/24 12:06:07;;;;;;;3.00;2.80;;;17.00;99.90;;;;;;5069106;28;20937;-59
2023/09/24 12:08:36;;;;;;;2.30;2.20;;;17.00;99.90;;;;;;5067815;28;20464;-59
2023/09/24 12:11:04;;;;;;;3.57;2.40;;;17.00;99.90;;;;;;5070772;28;20887;-60
2023/09/24 12:13:33;;;;;;;3.00;2.70;;;16.90;99.90;;;;;;5075961;28;20504;-60
2023/09/24 12:16:01;;;;;;;3.20;2.77;;;16.80;99.90;;;;;;5067988;28;20561;-60
2023/09/24 12:18:29;;;;;;;3.13;2.80;;;16.90;99.90;;;;;;5071264;28;20465;-60
2023/09/24 12:20:58;;;;;;;2.93;2.63;;;17.10;99.90;;;;;;5080030;28;20473;-59
2023/09/24 12:23:26;;;;;;;3.27;2.97;;;17.10;99.90;;;;;;5073147;28;20962;-60
2023/09/24 12:25:54;;;;;;;3.17;2.97;;;17.10;99.90;;;;;;5067778;28;20505;-60
2023/09/24 12:28:22;;;;;;;2.67;2.47;;;17.10;99.90;;;;;;5070485;28;20568;-59
2023/09/24 12:30:52;;;;;;;2.30;2.10;;;17.30;99.90;;;;;;5074625;28;20471;-65
2023/09/24 12:33:20;;;;;;;2.67;2.50;;;17.30;99.90;;;;;;5069749;28;20480;-61
2023/09/24 12:35:49;;;;;;;3.40;3.10;;;17.50;99.90;;;;;;5070762;28;20488;-63
2023/09/24 12:38:17;;;;;;;3.23;2.50;;;17.50;99.90;;;;;;5073172;28;20469;-61
2023/09/24 12:40:46;;;;;;;3.27;2.97;;;18.00;99.90;;;;;;5071283;28;20960;-62
2023/09/24 12:43:14;;;;;;;2.43;2.30;;;19.00;99.90;;;;;;5072949;28;20481;-63
2023/09/24 12:45:42;;;;;;;2.50;2.30;;;19.80;99.90;;;;;;5072141;28;20814;-61
2023/09/24 12:48:12;;;;;;;2.60;2.50;;;19.90;99.90;;;;;;5070928;28;20500;-62
2023/09/24 12:50:41;;;;;;;2.40;2.30;;;20.40;99.90;;;;;;5071434;28;20473;-65
2023/09/24 12:53:11;;;;;;;2.60;2.40;;;21.20;99.90;;;;;;5072212;28;20565;-65
2023/09/24 12:55:39;;;;;;;2.83;2.30;;;22.70;99.90;;;;;;5069863;28;20497;-65
2023/09/24 12:58:07;;;;;;;2.80;2.20;;;25.10;99.90;;;;;;5074872;28;20565;-65